Terminal Aerodrome Forecast
Issued by NWS Grand Forks, ND

Home | Current Version | Previous Version | Graphics & Text | Print | Product List | Glossary On
Versions: 1 2 3 4 5 6 7 8 9 10 11 12 13 14
799
FTUS43 KFGF 301727
TAFFAR
TAF
KFAR 301727Z 3018/0118 34014KT 1SM -SN OVC009
      TEMPO 3018/3021 2SM -SN
     FM010000 33012KT 4SM -RASN OVC008
     FM010200 34012KT 4SM -FZDZ OVC008
     FM011100 34010KT P6SM OVC008
     FM011700 34009KT P6SM OVC010=

USA.gov is the U.S. government's official web portal to all federal, state and local government web resources and services.